sensor_id;sensor_type;location;lat;lon;timestamp;pressure;altitude;pressure_sealevel;temperature;humidity
498;BME280;39559;48.630;9.162;2022-10-31T00:02:05;97957.16;;;7.54;100.00
498;BME280;39559;48.630;9.162;2022-10-31T00:04:31;97957.19;;;7.52;100.00
498;BME280;39559;48.630;9.162;2022-10-31T00:06:56;97960.69;;;7.49;100.00
498;BME280;39559;48.630;9.162;2022-10-31T00:09:22;97954.63;;;7.50;100.00
498;BME280;39559;48.630;9.162;2022-10-31T00:11:47;97957.97;;;7.56;100.00
498;BME280;39559;48.630;9.162;2022-10-31T00:14:13;97958.78;;;7.58;100.00
498;BME280;39559;48.630;9.162;2022-10-31T00:16:39;97956.03;;;7.64;100.00
498;BME280;39559;48.630;9.162;2022-10-31T00:19:06;97946.22;;;7.42;100.00
498;BME280;39559;48.630;9.162;2022-10-31T00:21:32;97958.34;;;7.39;100.00
498;BME280;39559;48.630;9.162;2022-10-31T00:26:04;97952.28;;;7.40;100.00
498;BME280;39559;48.630;9.162;2022-10-31T00:28:34;97952.22;;;7.43;100.00
498;BME280;39559;48.630;9.162;2022-10-31T00:31:05;97952.88;;;7.51;100.00
498;BME280;39559;48.630;9.162;2022-10-31T00:33:33;97952.44;;;7.34;100.00
498;BME280;39559;48.630;9.162;2022-10-31T00:35:59;97957.66;;;7.30;100.00
498;BME280;39559;48.630;9.162;2022-10-31T00:38:25;97951.69;;;7.28;100.00
498;BME280;39559;48.630;9.162;2022-10-31T00:40:50;97955.84;;;7.34;100.00
498;BME280;39559;48.630;9.162;2022-10-31T00:43:16;97963.59;;;7.34;100.00
498;BME280;39559;48.630;9.162;2022-10-31T00:45:42;97953.22;;;7.37;100.00
498;BME280;39559;48.630;9.162;2022-10-31T00:50:03;97954.53;;;7.16;100.00
498;BME280;39559;48.630;9.162;2022-10-31T00:52:28;97957.94;;;7.17;100.00
498;BME280;39559;48.630;9.162;2022-10-31T00:54:54;97952.75;;;7.18;100.00
498;BME280;39559;48.630;9.162;2022-10-31T00:57:19;97955.47;;;7.12;100.00
498;BME280;39559;48.630;9.162;2022-10-31T00:59:45;97957.88;;;7.20;100.00
498;BME280;39559;48.630;9.162;2022-10-31T01:02:10;97955.38;;;7.17;100.00
498;BME280;39559;48.630;9.162;2022-10-31T01:04:39;97952.50;;;7.30;100.00
498;BME280;39559;48.630;9.162;2022-10-31T01:07:04;97951.25;;;7.09;100.00
498;BME280;39559;48.630;9.162;2022-10-31T01:09:30;97951.47;;;6.99;100.00
498;BME280;39559;48.630;9.162;2022-10-31T01:14:02;97953.47;;;6.84;100.00
498;BME280;39559;48.630;9.162;2022-10-31T01:16:28;97953.38;;;6.87;100.00
498;BME280;39559;48.630;9.162;2022-10-31T01:18:56;97947.16;;;6.98;100.00
498;BME280;39559;48.630;9.162;2022-10-31T01:21:26;97947.22;;;6.95;100.00
498;BME280;39559;48.630;9.162;2022-10-31T01:23:53;97949.81;;;6.95;100.00
498;BME280;39559;48.630;9.162;2022-10-31T01:26:27;97955.94;;;6.89;100.00
498;BME280;39559;48.630;9.162;2022-10-31T01:28:55;97937.97;;;6.84;100.00
498;BME280;39559;48.630;9.162;2022-10-31T01:31:24;97940.47;;;6.89;100.00
498;BME280;39559;48.630;9.162;2022-10-31T01:33:50;97949.19;;;6.82;100.00
498;BME280;39559;48.630;9.162;2022-10-31T01:37:58;97944.16;;;6.77;100.00
498;BME280;39559;48.630;9.162;2022-10-31T01:40:23;97946.00;;;6.70;100.00
498;BME280;39559;48.630;9.162;2022-10-31T01:42:49;97945.91;;;6.75;100.00
498;BME280;39559;48.630;9.162;2022-10-31T01:45:15;97944.03;;;6.82;100.00
498;BME280;39559;48.630;9.162;2022-10-31T01:47:45;97944.13;;;6.79;100.00
498;BME280;39559;48.630;9.162;2022-10-31T01:50:18;97944.25;;;6.71;100.00
498;BME280;39559;48.630;9.162;2022-10-31T01:52:50;97940.00;;;6.68;100.00
498;BME280;39559;48.630;9.162;2022-10-31T01:55:22;97936.63;;;6.65;100.00
498;BME280;39559;48.630;9.162;2022-10-31T01:57:51;97928.94;;;6.63;100.00
498;BME280;39559;48.630;9.162;2022-10-31T02:01:56;97927.91;;;6.72;100.00
498;BME280;39559;48.630;9.162;2022-10-31T02:04:23;97932.72;;;6.87;100.00
498;BME280;39559;48.630;9.162;2022-10-31T02:07:03;97934.84;;;6.68;100.00
498;BME280;39559;48.630;9.162;2022-10-31T02:09:34;97927.94;;;6.69;100.00
498;BME280;39559;48.630;9.162;2022-10-31T02:12:02;97933.25;;;6.63;100.00
498;BME280;39559;48.630;9.162;2022-10-31T02:14:29;97928.09;;;6.63;100.00
498;BME280;39559;48.630;9.162;2022-10-31T02:16:56;97921.22;;;6.62;100.00
498;BME280;39559;48.630;9.162;2022-10-31T02:26:13;97921.38;;;6.52;100.00
498;BME280;39559;48.630;9.162;2022-10-31T02:34:06;97919.09;;;6.39;100.00
498;BME280;39559;48.630;9.162;2022-10-31T02:41:49;97925.25;;;6.31;100.00
498;BME280;39559;48.630;9.162;2022-10-31T02:47:05;97929.00;;;6.13;100.00
498;BME280;39559;48.630;9.162;2022-10-31T02:50:17;97925.34;;;6.25;100.00
498;BME280;39559;48.630;9.162;2022-10-31T02:52:43;97920.31;;;6.19;100.00
498;BME280;39559;48.630;9.162;2022-10-31T02:58:15;97921.19;;;6.17;100.00
498;BME280;39559;48.630;9.162;2022-10-31T03:06:35;97918.38;;;6.30;100.00
498;BME280;39559;48.630;9.162;2022-10-31T03:09:27;97931.47;;;6.18;100.00
498;BME280;39559;48.630;9.162;2022-10-31T03:16:27;97925.69;;;6.05;100.00
498;BME280;39559;48.630;9.162;2022-10-31T03:23:57;97928.50;;;5.91;100.00
498;BME280;39559;48.630;9.162;2022-10-31T03:26:25;97914.72;;;5.91;100.00
498;BME280;39559;48.630;9.162;2022-10-31T03:29:03;97917.16;;;6.02;100.00
498;BME280;39559;48.630;9.162;2022-10-31T03:31:38;97920.66;;;5.99;100.00
498;BME280;39559;48.630;9.162;2022-10-31T03:34:07;97915.56;;;5.93;100.00
498;BME280;39559;48.630;9.162;2022-10-31T03:37:52;97923.25;;;5.94;100.00
498;BME280;39559;48.630;9.162;2022-10-31T03:40:20;97919.06;;;5.89;100.00
498;BME280;39559;48.630;9.162;2022-10-31T03:42:53;97929.53;;;5.80;100.00
498;BME280;39559;48.630;9.162;2022-10-31T03:45:24;97927.84;;;5.79;100.00
498;BME280;39559;48.630;9.162;2022-10-31T03:47:52;97920.16;;;5.75;100.00
498;BME280;39559;48.630;9.162;2022-10-31T03:50:19;97922.41;;;5.97;100.00
498;BME280;39559;48.630;9.162;2022-10-31T03:52:54;97919.13;;;5.86;100.00
498;BME280;39559;48.630;9.162;2022-10-31T03:55:31;97920.97;;;5.77;100.00
498;BME280;39559;48.630;9.162;2022-10-31T04:01:51;97917.53;;;5.79;100.00
498;BME280;39559;48.630;9.162;2022-10-31T04:04:19;97913.19;;;5.82;100.00
498;BME280;39559;48.630;9.162;2022-10-31T04:06:46;97910.53;;;5.85;100.00
498;BME280;39559;48.630;9.162;2022-10-31T04:09:13;97910.56;;;5.84;100.00
498;BME280;39559;48.630;9.162;2022-10-31T04:11:50;97915.78;;;5.81;100.00
498;BME280;39559;48.630;9.162;2022-10-31T04:14:17;97917.59;;;5.74;100.00
498;BME280;39559;48.630;9.162;2022-10-31T04:16:43;97915.88;;;5.73;100.00
498;BME280;39559;48.630;9.162;2022-10-31T04:19:10;97912.47;;;5.71;100.00
498;BME280;39559;48.630;9.162;2022-10-31T04:21:36;97904.06;;;5.61;100.00
498;BME280;39559;48.630;9.162;2022-10-31T04:25:50;97911.75;;;5.64;100.00
498;BME280;39559;48.630;9.162;2022-10-31T04:28:15;97904.69;;;5.75;100.00
498;BME280;39559;48.630;9.162;2022-10-31T04:30:41;97905.69;;;5.67;100.00
498;BME280;39559;48.630;9.162;2022-10-31T04:33:06;97903.19;;;5.62;100.00
498;BME280;39559;48.630;9.162;2022-10-31T04:35:32;97903.31;;;5.53;100.00
498;BME280;39559;48.630;9.162;2022-10-31T04:37:57;97895.56;;;5.56;100.00
498;BME280;39559;48.630;9.162;2022-10-31T04:40:23;97897.44;;;5.46;100.00
498;BME280;39559;48.630;9.162;2022-10-31T04:42:51;97897.50;;;5.42;100.00
498;BME280;39559;48.630;9.162;2022-10-31T04:45:17;97894.13;;;5.36;100.00
498;BME280;39559;48.630;9.162;2022-10-31T04:49:45;97886.31;;;5.43;100.00
498;BME280;39559;48.630;9.162;2022-10-31T04:52:11;97894.91;;;5.42;100.00
498;BME280;39559;48.630;9.162;2022-10-31T04:54:36;97895.88;;;5.34;100.00
498;BME280;39559;48.630;9.162;2022-10-31T04:57:02;97890.78;;;5.31;100.00
498;BME280;39559;48.630;9.162;2022-10-31T04:59:27;97892.41;;;5.38;100.00
498;BME280;39559;48.630;9.162;2022-10-31T05:01:53;97892.59;;;5.25;100.00
498;BME280;39559;48.630;9.162;2022-10-31T05:04:18;97887.56;;;5.17;100.00
498;BME280;39559;48.630;9.162;2022-10-31T05:06:44;97886.63;;;5.23;100.00
498;BME280;39559;48.630;9.162;2022-10-31T05:09:09;97878.97;;;5.16;100.00
498;BME280;39559;48.630;9.162;2022-10-31T05:13:44;97883.16;;;5.25;100.00
498;BME280;39559;48.630;9.162;2022-10-31T05:16:10;97878.09;;;5.19;100.00
498;BME280;39559;48.630;9.162;2022-10-31T05:18:35;97880.69;;;5.19;100.00
498;BME280;39559;48.630;9.162;2022-10-31T05:21:00;97875.56;;;5.16;100.00
498;BME280;39559;48.630;9.162;2022-10-31T05:23:26;97880.72;;;5.14;100.00
498;BME280;39559;48.630;9.162;2022-10-31T05:25:51;97876.47;;;5.13;100.00
498;BME280;39559;48.630;9.162;2022-10-31T05:28:17;97874.03;;;5.03;100.00
498;BME280;39559;48.630;9.162;2022-10-31T05:30:43;97875.69;;;5.07;100.00
498;BME280;39559;48.630;9.162;2022-10-31T05:33:08;97872.44;;;4.95;100.00
498;BME280;39559;48.630;9.162;2022-10-31T05:37:43;97868.06;;;5.00;100.00
498;BME280;39559;48.630;9.162;2022-10-31T05:40:10;97863.75;;;5.03;100.00
498;BME280;39559;48.630;9.162;2022-10-31T05:42:38;97868.13;;;4.96;100.00
498;BME280;39559;48.630;9.162;2022-10-31T05:45:04;97869.06;;;4.90;100.00
498;BME280;39559;48.630;9.162;2022-10-31T05:47:29;97857.06;;;4.89;100.00
498;BME280;39559;48.630;9.162;2022-10-31T05:49:55;97864.88;;;4.83;100.00
498;BME280;39559;48.630;9.162;2022-10-31T05:52:20;97866.53;;;4.86;100.00
498;BME280;39559;48.630;9.162;2022-10-31T05:54:46;97860.56;;;4.85;100.00
498;BME280;39559;48.630;9.162;2022-10-31T05:57:11;97866.59;;;4.84;100.00
498;BME280;39559;48.630;9.162;2022-10-31T06:01:43;97873.28;;;4.94;100.00
498;BME280;39559;48.630;9.162;2022-10-31T06:04:08;97867.34;;;4.89;100.00
498;BME280;39559;48.630;9.162;2022-10-31T06:06:34;97867.44;;;4.85;100.00
498;BME280;39559;48.630;9.162;2022-10-31T06:08:59;97869.19;;;4.81;100.00
498;BME280;39559;48.630;9.162;2022-10-31T06:11:25;97861.38;;;4.86;100.00
498;BME280;39559;48.630;9.162;2022-10-31T06:13:50;97863.13;;;4.84;100.00
498;BME280;39559;48.630;9.162;2022-10-31T06:16:15;97855.38;;;4.88;100.00
498;BME280;39559;48.630;9.162;2022-10-31T06:18:41;97861.34;;;4.89;100.00
498;BME280;39559;48.630;9.162;2022-10-31T06:21:06;97855.22;;;5.00;100.00
498;BME280;39559;48.630;9.162;2022-10-31T06:25:42;97864.47;;;5.12;100.00
498;BME280;39559;48.630;9.162;2022-10-31T06:28:07;97863.78;;;4.99;100.00
498;BME280;39559;48.630;9.162;2022-10-31T06:30:33;97862.19;;;4.89;100.00
498;BME280;39559;48.630;9.162;2022-10-31T06:33:03;97860.50;;;4.88;100.00
498;BME280;39559;48.630;9.162;2022-10-31T06:35:29;97862.25;;;4.86;100.00
498;BME280;39559;48.630;9.162;2022-10-31T06:37:55;97867.28;;;4.94;100.00
498;BME280;39559;48.630;9.162;2022-10-31T06:40:21;97868.09;;;4.99;100.00
498;BME280;39559;48.630;9.162;2022-10-31T06:42:46;97866.44;;;4.95;100.00
498;BME280;39559;48.630;9.162;2022-10-31T06:45:12;97864.63;;;5.00;100.00
498;BME280;39559;48.630;9.162;2022-10-31T06:49:40;97865.28;;;5.13;100.00
498;BME280;39559;48.630;9.162;2022-10-31T06:52:06;97856.63;;;5.20;100.00
498;BME280;39559;48.630;9.162;2022-10-31T06:54:31;97866.16;;;5.13;100.00
498;BME280;39559;48.630;9.162;2022-10-31T06:56:57;97862.72;;;5.13;100.00
498;BME280;39559;48.630;9.162;2022-10-31T06:59:22;97863.50;;;5.18;100.00
498;BME280;39559;48.630;9.162;2022-10-31T07:01:49;97863.59;;;5.15;100.00
498;BME280;39559;48.630;9.162;2022-10-31T07:04:15;97853.19;;;5.21;100.00
498;BME280;39559;48.630;9.162;2022-10-31T07:06:40;97866.84;;;5.26;100.00
498;BME280;39559;48.630;9.162;2022-10-31T07:09:06;97865.94;;;5.29;100.00
498;BME280;39559;48.630;9.162;2022-10-31T07:13:40;97863.94;;;5.46;100.00
498;BME280;39559;48.630;9.162;2022-10-31T07:16:06;97866.34;;;5.57;100.00
498;BME280;39559;48.630;9.162;2022-10-31T07:18:32;97857.69;;;5.61;100.00
498;BME280;39559;48.630;9.162;2022-10-31T07:20:58;97871.25;;;5.71;100.00
498;BME280;39559;48.630;9.162;2022-10-31T07:23:23;97867.00;;;5.70;100.00
498;BME280;39559;48.630;9.162;2022-10-31T07:25:57;97871.19;;;5.75;100.00
498;BME280;39559;48.630;9.162;2022-10-31T07:28:23;97861.63;;;5.82;100.00
498;BME280;39559;48.630;9.162;2022-10-31T07:30:56;97861.53;;;5.87;100.00
498;BME280;39559;48.630;9.162;2022-10-31T07:33:22;97859.72;;;5.93;100.00
498;BME280;39559;48.630;9.162;2022-10-31T07:37:39;97854.38;;;6.06;100.00
498;BME280;39559;48.630;9.162;2022-10-31T07:40:07;97857.13;;;5.95;100.00
498;BME280;39559;48.630;9.162;2022-10-31T07:42:37;97862.84;;;6.11;100.00
498;BME280;39559;48.630;9.162;2022-10-31T07:45:06;97865.09;;;6.29;100.00
498;BME280;39559;48.630;9.162;2022-10-31T07:47:42;97865.09;;;6.29;100.00
498;BME280;39559;48.630;9.162;2022-10-31T07:50:09;97865.59;;;6.47;100.00
498;BME280;39559;48.630;9.162;2022-10-31T07:52:35;97863.75;;;6.53;100.00
498;BME280;39559;48.630;9.162;2022-10-31T07:55:01;97860.19;;;6.61;100.00
498;BME280;39559;48.630;9.162;2022-10-31T07:57:27;97862.66;;;6.64;100.00
498;BME280;39559;48.630;9.162;2022-10-31T08:01:39;97856.38;;;6.79;100.00
498;BME280;39559;48.630;9.162;2022-10-31T08:04:04;97859.38;;;6.98;100.00
498;BME280;39559;48.630;9.162;2022-10-31T08:06:30;97856.47;;;7.13;100.00
498;BME280;39559;48.630;9.162;2022-10-31T08:08:55;97855.09;;;7.34;100.00
498;BME280;39559;48.630;9.162;2022-10-31T08:11:21;97852.25;;;7.45;100.00
498;BME280;39559;48.630;9.162;2022-10-31T08:13:46;97851.81;;;7.63;100.00
498;BME280;39559;48.630;9.162;2022-10-31T08:16:12;97855.97;;;7.69;100.00
498;BME280;39559;48.630;9.162;2022-10-31T08:18:37;97854.63;;;7.88;100.00
498;BME280;39559;48.630;9.162;2022-10-31T08:21:03;97854.22;;;8.04;100.00
498;BME280;39559;48.630;9.162;2022-10-31T08:25:39;97852.97;;;8.19;100.00
498;BME280;39559;48.630;9.162;2022-10-31T08:28:06;97845.53;;;8.38;100.00
498;BME280;39559;48.630;9.162;2022-10-31T08:30:33;97841.31;;;8.35;100.00
498;BME280;39559;48.630;9.162;2022-10-31T08:33:09;97843.22;;;8.60;100.00
498;BME280;39559;48.630;9.162;2022-10-31T08:35:35;97843.06;;;8.66;100.00
498;BME280;39559;48.630;9.162;2022-10-31T08:38:01;97840.25;;;8.74;100.00
498;BME280;39559;48.630;9.162;2022-10-31T08:40:29;97842.41;;;8.88;100.00
498;BME280;39559;48.630;9.162;2022-10-31T08:43:03;97833.56;;;8.95;100.00
498;BME280;39559;48.630;9.162;2022-10-31T08:45:30;97833.91;;;9.12;100.00
498;BME280;39559;48.630;9.162;2022-10-31T08:49:37;97828.16;;;9.29;100.00
498;BME280;39559;48.630;9.162;2022-10-31T08:52:02;97827.53;;;9.49;100.00
498;BME280;39559;48.630;9.162;2022-10-31T08:54:28;97821.91;;;9.63;100.00
498;BME280;39559;48.630;9.162;2022-10-31T08:56:55;97819.63;;;9.79;100.00
498;BME280;39559;48.630;9.162;2022-10-31T08:59:20;97823.69;;;9.88;100.00
498;BME280;39559;48.630;9.162;2022-10-31T09:01:46;97833.94;;;9.91;100.00
498;BME280;39559;48.630;9.162;2022-10-31T09:04:11;97828.72;;;9.91;100.00
498;BME280;39559;48.630;9.162;2022-10-31T09:06:37;97828.41;;;10.00;100.00
498;BME280;39559;48.630;9.162;2022-10-31T09:09:02;97823.19;;;10.02;100.00
498;BME280;39559;48.630;9.162;2022-10-31T09:13:36;97820.84;;;10.44;100.00
498;BME280;39559;48.630;9.162;2022-10-31T09:16:02;97819.91;;;10.45;100.00
498;BME280;39559;48.630;9.162;2022-10-31T09:18:28;97818.56;;;10.59;100.00
498;BME280;39559;48.630;9.162;2022-10-31T09:20:53;97823.22;;;10.96;100.00
498;BME280;39559;48.630;9.162;2022-10-31T09:23:21;97820.44;;;11.23;100.00
498;BME280;39559;48.630;9.162;2022-10-31T09:25:48;97809.69;;;11.32;100.00
498;BME280;39559;48.630;9.162;2022-10-31T09:28:16;97809.78;;;11.29;100.00
498;BME280;39559;48.630;9.162;2022-10-31T09:30:51;97814.03;;;11.31;100.00
498;BME280;39559;48.630;9.162;2022-10-31T09:33:17;97804.88;;;11.43;100.00
498;BME280;39559;48.630;9.162;2022-10-31T09:37:35;97799.25;;;11.54;100.00
498;BME280;39559;48.630;9.162;2022-10-31T09:40:01;97797.88;;;11.66;100.00
498;BME280;39559;48.630;9.162;2022-10-31T09:43:23;97792.44;;;11.93;100.00
498;BME280;39559;48.630;9.162;2022-10-31T09:50:58;97800.44;;;12.48;100.00
498;BME280;39559;48.630;9.162;2022-10-31T09:56:12;97793.63;;;12.64;100.00
498;BME280;39559;48.630;9.162;2022-10-31T09:58:43;97792.69;;;12.46;100.00
498;BME280;39559;48.630;9.162;2022-10-31T10:01:49;97785.28;;;12.56;100.00
498;BME280;39559;48.630;9.162;2022-10-31T10:04:37;97784.53;;;12.35;100.00
498;BME280;39559;48.630;9.162;2022-10-31T10:08:19;97787.53;;;12.45;100.00
498;BME280;39559;48.630;9.162;2022-10-31T10:25:38;97784.16;;;13.71;100.00
498;BME280;39559;48.630;9.162;2022-10-31T10:28:26;97771.78;;;13.92;100.00
498;BME280;39559;48.630;9.162;2022-10-31T10:34:02;97772.47;;;13.96;100.00
498;BME280;39559;48.630;9.162;2022-10-31T10:36:49;97765.53;;;13.95;100.00
498;BME280;39559;48.630;9.162;2022-10-31T10:39:22;97765.34;;;13.82;100.00
498;BME280;39559;48.630;9.162;2022-10-31T10:41:50;97765.78;;;13.90;100.00
498;BME280;39559;48.630;9.162;2022-10-31T10:44:40;97761.88;;;13.99;100.00
498;BME280;39559;48.630;9.162;2022-10-31T10:49:50;97748.75;;;14.16;100.00
498;BME280;39559;48.630;9.162;2022-10-31T10:55:50;97748.88;;;14.31;100.00
498;BME280;39559;48.630;9.162;2022-10-31T10:58:18;97741.38;;;14.56;100.00
498;BME280;39559;48.630;9.162;2022-10-31T11:00:46;97736.94;;;14.90;100.00
498;BME280;39559;48.630;9.162;2022-10-31T11:03:13;97735.81;;;15.41;100.00
498;BME280;39559;48.630;9.162;2022-10-31T11:05:51;97726.41;;;15.83;100.00
498;BME280;39559;48.630;9.162;2022-10-31T11:13:32;97713.81;;;17.01;100.00
498;BME280;39559;48.630;9.162;2022-10-31T11:16:04;97703.09;;;16.77;100.00
498;BME280;39559;48.630;9.162;2022-10-31T11:18:37;97711.34;;;16.85;100.00
498;BME280;39559;48.630;9.162;2022-10-31T11:21:04;97689.94;;;16.92;100.00
498;BME280;39559;48.630;9.162;2022-10-31T11:23:31;97686.88;;;17.12;100.00
498;BME280;39559;48.630;9.162;2022-10-31T11:26:00;97681.50;;;17.01;100.00
498;BME280;39559;48.630;9.162;2022-10-31T11:28:28;97691.03;;;17.55;100.00
498;BME280;39559;48.630;9.162;2022-10-31T11:31:12;97684.28;;;18.28;100.00
498;BME280;39559;48.630;9.162;2022-10-31T11:33:47;97678.94;;;18.16;100.00
498;BME280;39559;48.630;9.162;2022-10-31T11:37:32;97669.56;;;18.86;100.00
498;BME280;39559;48.630;9.162;2022-10-31T11:40:03;97669.19;;;18.79;100.00
498;BME280;39559;48.630;9.162;2022-10-31T11:42:37;97672.91;;;19.01;96.56
498;BME280;39559;48.630;9.162;2022-10-31T11:45:13;97680.25;;;18.85;97.39
498;BME280;39559;48.630;9.162;2022-10-31T11:47:42;97676.00;;;18.58;95.17
498;BME280;39559;48.630;9.162;2022-10-31T11:50:11;97671.94;;;18.41;94.27
498;BME280;39559;48.630;9.162;2022-10-31T11:52:43;97663.13;;;17.92;100.00
498;BME280;39559;48.630;9.162;2022-10-31T11:57:45;97651.59;;;18.19;92.46
498;BME280;39559;48.630;9.162;2022-10-31T12:01:29;97650.47;;;17.84;99.03
498;BME280;39559;48.630;9.162;2022-10-31T12:04:09;97647.66;;;17.88;98.47
498;BME280;39559;48.630;9.162;2022-10-31T12:06:40;97647.53;;;18.02;98.80
498;BME280;39559;48.630;9.162;2022-10-31T12:09:30;97647.72;;;18.49;91.78
498;BME280;39559;48.630;9.162;2022-10-31T12:17:44;97641.22;;;18.17;87.41
498;BME280;39559;48.630;9.162;2022-10-31T12:28:25;97621.72;;;17.44;96.94
498;BME280;39559;48.630;9.162;2022-10-31T12:31:23;97621.06;;;17.67;99.62
498;BME280;39559;48.630;9.162;2022-10-31T12:40:10;97598.13;;;17.04;100.00
498;BME280;39559;48.630;9.162;2022-10-31T12:49:40;97587.34;;;16.69;100.00
498;BME280;39559;48.630;9.162;2022-10-31T12:57:33;97568.19;;;16.41;100.00
498;BME280;39559;48.630;9.162;2022-10-31T13:00:13;97566.13;;;16.46;100.00
498;BME280;39559;48.630;9.162;2022-10-31T13:02:50;97570.59;;;16.44;100.00
498;BME280;39559;48.630;9.162;2022-10-31T13:05:29;97570.03;;;16.54;100.00
498;BME280;39559;48.630;9.162;2022-10-31T13:08:07;97563.19;;;16.51;100.00
498;BME280;39559;48.630;9.162;2022-10-31T13:13:43;97557.09;;;16.50;100.00
498;BME280;39559;48.630;9.162;2022-10-31T13:16:14;97558.09;;;16.35;100.00
498;BME280;39559;48.630;9.162;2022-10-31T13:18:48;97553.09;;;16.18;100.00
498;BME280;39559;48.630;9.162;2022-10-31T13:21:21;97555.22;;;16.25;100.00
498;BME280;39559;48.630;9.162;2022-10-31T13:23:50;97555.69;;;16.32;100.00
498;BME280;39559;48.630;9.162;2022-10-31T13:26:37;97555.59;;;16.34;100.00
498;BME280;39559;48.630;9.162;2022-10-31T13:29:09;97555.47;;;16.35;100.00
498;BME280;39559;48.630;9.162;2022-10-31T13:31:40;97551.03;;;16.50;100.00
498;BME280;39559;48.630;9.162;2022-10-31T13:34:28;97541.03;;;16.95;100.00
498;BME280;39559;48.630;9.162;2022-10-31T13:45:26;97534.56;;;17.26;100.00
498;BME280;39559;48.630;9.162;2022-10-31T13:50:40;97518.94;;;17.12;100.00
498;BME280;39559;48.630;9.162;2022-10-31T13:53:21;97515.34;;;17.00;100.00
498;BME280;39559;48.630;9.162;2022-10-31T13:55:49;97521.56;;;17.12;100.00
498;BME280;39559;48.630;9.162;2022-10-31T13:58:29;97522.19;;;17.16;100.00
498;BME280;39559;48.630;9.162;2022-10-31T14:01:19;97505.91;;;17.23;100.00
498;BME280;39559;48.630;9.162;2022-10-31T14:03:56;97516.94;;;17.03;100.00
498;BME280;39559;48.630;9.162;2022-10-31T14:06:38;97512.09;;;17.10;100.00
498;BME280;39559;48.630;9.162;2022-10-31T14:09:05;97513.34;;;17.17;100.00
498;BME280;39559;48.630;9.162;2022-10-31T14:11:31;97506.00;;;17.22;100.00
498;BME280;39559;48.630;9.162;2022-10-31T14:13:58;97507.56;;;17.37;100.00
498;BME280;39559;48.630;9.162;2022-10-31T14:16:31;97500.25;;;17.67;100.00
498;BME280;39559;48.630;9.162;2022-10-31T14:19:02;97494.88;;;17.68;100.00
498;BME280;39559;48.630;9.162;2022-10-31T14:21:41;97494.91;;;17.55;100.00
498;BME280;39559;48.630;9.162;2022-10-31T14:25:26;97489.97;;;17.63;100.00
498;BME280;39559;48.630;9.162;2022-10-31T14:27:52;97496.81;;;17.53;100.00
498;BME280;39559;48.630;9.162;2022-10-31T14:30:23;97496.94;;;17.39;100.00
498;BME280;39559;48.630;9.162;2022-10-31T14:32:52;97503.06;;;17.26;100.00
498;BME280;39559;48.630;9.162;2022-10-31T14:35:20;97504.75;;;17.02;100.00
498;BME280;39559;48.630;9.162;2022-10-31T14:43:14;97496.25;;;16.85;100.00
498;BME280;39559;48.630;9.162;2022-10-31T14:45:55;97495.59;;;17.20;100.00
498;BME280;39559;48.630;9.162;2022-10-31T14:49:16;97491.94;;;16.04;100.00
498;BME280;39559;48.630;9.162;2022-10-31T14:51:46;97482.97;;;15.67;100.00
498;BME280;39559;48.630;9.162;2022-10-31T14:54:15;97489.03;;;15.67;100.00
498;BME280;39559;48.630;9.162;2022-10-31T14:56:55;97484.53;;;15.69;100.00
498;BME280;39559;48.630;9.162;2022-10-31T14:59:27;97489.22;;;15.79;100.00
498;BME280;39559;48.630;9.162;2022-10-31T15:01:57;97481.53;;;15.90;100.00
498;BME280;39559;48.630;9.162;2022-10-31T15:04:26;97482.38;;;15.90;100.00
498;BME280;39559;48.630;9.162;2022-10-31T15:09:36;97484.75;;;15.66;100.00
498;BME280;39559;48.630;9.162;2022-10-31T15:13:10;97487.03;;;15.44;100.00
498;BME280;39559;48.630;9.162;2022-10-31T15:15:42;97485.56;;;15.25;100.00
498;BME280;39559;48.630;9.162;2022-10-31T15:18:16;97477.31;;;15.31;100.00
498;BME280;39559;48.630;9.162;2022-10-31T15:20:44;97477.13;;;15.06;100.00
498;BME280;39559;48.630;9.162;2022-10-31T15:23:30;97474.41;;;14.78;100.00
498;BME280;39559;48.630;9.162;2022-10-31T15:26:01;97472.81;;;14.62;100.00
498;BME280;39559;48.630;9.162;2022-10-31T15:28:27;97471.38;;;14.56;100.00
498;BME280;39559;48.630;9.162;2022-10-31T15:30:58;97470.41;;;15.02;100.00
498;BME280;39559;48.630;9.162;2022-10-31T15:33:32;97464.44;;;14.85;100.00
498;BME280;39559;48.630;9.162;2022-10-31T15:37:02;97466.94;;;13.81;100.00
498;BME280;39559;48.630;9.162;2022-10-31T15:39:28;97469.09;;;13.73;100.00
498;BME280;39559;48.630;9.162;2022-10-31T15:41:56;97466.09;;;13.65;100.00
498;BME280;39559;48.630;9.162;2022-10-31T15:44:25;97461.91;;;13.47;100.00
498;BME280;39559;48.630;9.162;2022-10-31T15:46:54;97470.22;;;13.37;100.00
498;BME280;39559;48.630;9.162;2022-10-31T15:49:36;97458.84;;;13.38;100.00
498;BME280;39559;48.630;9.162;2022-10-31T15:54:57;97463.56;;;12.98;100.00
498;BME280;39559;48.630;9.162;2022-10-31T15:57:24;97467.69;;;13.36;100.00
498;BME280;39559;48.630;9.162;2022-10-31T16:01:05;97457.53;;;12.80;100.00
498;BME280;39559;48.630;9.162;2022-10-31T16:03:32;97460.41;;;12.76;100.00
498;BME280;39559;48.630;9.162;2022-10-31T16:06:01;97462.50;;;13.18;100.00
498;BME280;39559;48.630;9.162;2022-10-31T16:13:32;97456.63;;;12.48;100.00
498;BME280;39559;48.630;9.162;2022-10-31T16:16:04;97461.81;;;12.48;100.00
498;BME280;39559;48.630;9.162;2022-10-31T16:18:37;97455.44;;;12.36;100.00
498;BME280;39559;48.630;9.162;2022-10-31T16:21:04;97460.41;;;12.76;100.00
498;BME280;39559;48.630;9.162;2022-10-31T16:25:04;97462.53;;;12.67;100.00
498;BME280;39559;48.630;9.162;2022-10-31T16:27:34;97448.56;;;12.35;100.00
498;BME280;39559;48.630;9.162;2022-10-31T16:30:23;97441.44;;;12.04;100.00
498;BME280;39559;48.630;9.162;2022-10-31T16:32:53;97440.53;;;11.86;100.00
498;BME280;39559;48.630;9.162;2022-10-31T16:37:53;97451.81;;;11.67;100.00
498;BME280;39559;48.630;9.162;2022-10-31T16:40:19;97457.25;;;11.63;100.00
498;BME280;39559;48.630;9.162;2022-10-31T16:42:46;97462.84;;;11.72;100.00
498;BME280;39559;48.630;9.162;2022-10-31T16:45:19;97458.88;;;11.65;100.00
498;BME280;39559;48.630;9.162;2022-10-31T16:48:53;97468.44;;;11.27;100.00